createdAt,value
2023-05-01T00:01:53.895Z,31.40
2023-05-01T00:06:53.917Z,27.20
2023-05-01T00:11:53.773Z,26.50
2023-05-01T00:16:53.778Z,26.60
2023-05-01T00:21:53.656Z,31.50
2023-05-01T00:26:53.583Z,28.60
2023-05-01T00:31:53.540Z,27.20
2023-05-01T00:36:54.147Z,31.20
2023-05-01T00:41:53.408Z,27.60
2023-05-01T00:46:53.362Z,32.50
2023-05-01T00:51:53.329Z,34.20
2023-05-01T00:56:53.218Z,44.60
2023-05-01T01:01:54.404Z,44.30
2023-05-01T01:06:53.071Z,61.20
2023-05-01T01:11:53.020Z,54.70
2023-05-01T01:16:52.971Z,53.20
2023-05-01T01:21:52.883Z,54.30
2023-05-01T01:26:52.825Z,52.50
2023-05-01T01:32:17.021Z,62.30
2023-05-01T01:36:52.674Z,58.00
2023-05-01T01:41:52.645Z,58.10
2023-05-01T01:46:52.530Z,63.80
2023-05-01T01:51:52.458Z,52.80
2023-05-01T01:56:52.397Z,56.10
2023-05-01T02:01:52.435Z,57.70
2023-05-01T02:06:52.369Z,57.90
2023-05-01T02:11:52.232Z,58.60
2023-05-01T02:16:52.139Z,58.20
2023-05-01T02:21:52.064Z,62.20
2023-05-01T02:26:51.989Z,63.50
2023-05-01T02:31:51.961Z,64.90
2023-05-01T02:36:51.861Z,66.50
2023-05-01T02:41:51.793Z,63.50
2023-05-01T02:46:51.767Z,68.30
2023-05-01T02:51:51.670Z,67.60
2023-05-01T02:56:51.600Z,74.40
2023-05-01T03:01:51.626Z,68.60
2023-05-01T03:06:51.513Z,65.80
2023-05-01T03:11:51.420Z,64.90
2023-05-01T03:16:51.345Z,68.30
2023-05-01T03:21:51.270Z,66.10
2023-05-01T03:26:51.218Z,68.80
2023-05-01T03:31:51.172Z,65.90
2023-05-01T03:36:51.075Z,65.10
2023-05-01T03:41:51.010Z,65.00
2023-05-01T03:46:50.940Z,54.60
2023-05-01T03:51:50.878Z,45.60
2023-05-01T03:56:50.841Z,44.90
2023-05-01T04:01:50.775Z,51.80
2023-05-01T04:06:50.757Z,49.20
2023-05-01T04:11:50.618Z,51.20
2023-05-01T04:16:50.588Z,48.30
2023-05-01T04:21:50.494Z,40.40
2023-05-01T04:26:50.432Z,41.10
2023-05-01T04:31:50.373Z,35.20
2023-05-01T04:36:50.282Z,33.60
2023-05-01T04:41:50.231Z,34.00
2023-05-01T04:46:50.230Z,28.10
2023-05-01T04:51:50.076Z,28.80
2023-05-01T04:56:50.016Z,29.90
2023-05-01T05:01:49.990Z,26.50
2023-05-01T05:06:49.934Z,28.00
2023-05-01T05:11:49.830Z,28.40
2023-05-01T05:16:50.131Z,27.90
2023-05-01T05:21:49.709Z,29.90
2023-05-01T05:26:49.685Z,28.30
2023-05-01T05:31:49.604Z,29.40
2023-05-01T05:36:49.481Z,27.20
2023-05-01T05:41:49.438Z,28.80
2023-05-01T05:46:49.345Z,26.80
2023-05-01T05:51:49.277Z,26.40
2023-05-01T05:56:49.223Z,27.40
2023-05-01T06:01:49.171Z,28.50
2023-05-01T06:06:49.164Z,27.60
2023-05-01T06:11:49.016Z,28.00
2023-05-01T06:16:48.950Z,26.70
2023-05-01T06:21:48.905Z,25.30
2023-05-01T06:26:48.836Z,22.60
2023-05-01T06:31:48.785Z,22.40
2023-05-01T06:36:48.711Z,20.70
2023-05-01T06:41:48.900Z,18.60
2023-05-01T06:46:48.586Z,20.00
2023-05-01T06:51:48.486Z,18.80
2023-05-01T06:56:48.454Z,17.00
2023-05-01T07:01:48.362Z,15.40
2023-05-01T07:06:48.425Z,14.20
2023-05-01T07:11:48.249Z,13.40
2023-05-01T07:16:48.235Z,14.60
2023-05-01T07:21:48.101Z,12.00
2023-05-01T07:26:48.058Z,14.20
2023-05-01T07:31:48.087Z,15.40
2023-05-01T07:36:47.944Z,15.30
2023-05-01T07:41:47.847Z,13.20
2023-05-01T07:46:47.797Z,11.20
2023-05-01T07:51:47.716Z,11.20
2023-05-01T07:56:49.670Z,12.00
2023-05-01T08:01:47.602Z,10.90
2023-05-01T08:06:47.583Z,11.90
2023-05-01T08:11:47.452Z,11.60
2023-05-01T08:16:47.480Z,8.80
2023-05-01T08:21:47.316Z,9.70
2023-05-01T08:26:47.287Z,9.50
2023-05-01T08:31:47.246Z,7.80
2023-05-01T08:36:47.138Z,9.60
2023-05-01T08:41:47.096Z,8.90
2023-05-01T08:46:47.093Z,10.70
2023-05-01T08:51:46.930Z,9.20
2023-05-01T08:56:46.905Z,9.10
2023-05-01T09:01:46.866Z,10.10
2023-05-01T09:06:46.816Z,8.60
2023-05-01T09:11:46.657Z,7.70
2023-05-01T09:16:46.688Z,7.30
2023-05-01T09:21:46.536Z,7.70
2023-05-01T09:26:46.512Z,9.20
2023-05-01T09:31:46.453Z,10.00
2023-05-01T09:36:46.334Z,9.20
2023-05-01T09:41:46.343Z,9.00
2023-05-01T09:46:46.272Z,8.30
2023-05-01T09:51:46.144Z,8.40
2023-05-01T09:56:46.144Z,7.30
2023-05-01T10:01:46.142Z,6.60
2023-05-01T10:06:46.018Z,7.40
2023-05-01T10:11:45.867Z,9.70
2023-05-01T10:16:45.893Z,9.60
2023-05-01T10:21:45.784Z,9.20
2023-05-01T10:26:45.686Z,6.20
2023-05-01T10:31:45.712Z,9.00
2023-05-01T10:36:45.581Z,5.50
2023-05-01T10:41:45.499Z,6.10
2023-05-01T10:46:45.447Z,8.10
2023-05-01T10:51:45.327Z,9.20
2023-05-01T10:56:45.262Z,5.40
2023-05-01T11:01:45.274Z,8.50
2023-05-01T11:06:45.303Z,7.40
2023-05-01T11:11:45.095Z,8.00
2023-05-01T11:16:45.112Z,6.20
2023-05-01T11:21:45.018Z,6.80
2023-05-01T11:26:44.862Z,7.20
2023-05-01T11:31:44.827Z,6.70
2023-05-01T11:36:44.731Z,6.60
2023-05-01T11:41:44.704Z,7.00
2023-05-01T11:46:44.600Z,6.70
2023-05-01T11:51:44.545Z,6.40
2023-05-01T11:56:44.469Z,6.60
2023-05-01T12:01:44.403Z,7.00
2023-05-01T12:06:44.361Z,7.80
2023-05-01T12:11:44.355Z,8.70
2023-05-01T12:16:44.203Z,7.00
2023-05-01T12:21:44.133Z,7.90
2023-05-01T12:26:44.052Z,5.60
2023-05-01T12:31:44.062Z,6.60
2023-05-01T12:36:43.920Z,8.20
2023-05-01T12:41:43.855Z,4.80
2023-05-01T12:46:43.825Z,6.90
2023-05-01T12:51:43.723Z,5.00
2023-05-01T12:56:43.671Z,4.90
2023-05-01T13:01:43.636Z,5.30
2023-05-01T13:06:43.600Z,5.70
2023-05-01T13:11:43.467Z,4.80
2023-05-01T13:16:43.494Z,5.70
2023-05-01T13:21:43.322Z,5.00
2023-05-01T13:26:43.256Z,4.20
2023-05-01T13:31:43.212Z,5.20
2023-05-01T13:36:43.175Z,7.30
2023-05-01T13:41:43.050Z,15.50
2023-05-01T13:46:42.982Z,6.00
2023-05-01T13:51:42.922Z,4.10
2023-05-01T13:56:42.847Z,5.00
2023-05-01T14:01:42.965Z,6.10
2023-05-01T14:06:42.748Z,4.30
2023-05-01T14:11:42.651Z,5.70
2023-05-01T14:16:42.592Z,4.30
2023-05-01T14:21:42.540Z,5.50
2023-05-01T14:26:42.452Z,4.20
2023-05-01T14:31:42.435Z,4.10
2023-05-01T14:36:42.308Z,4.30
2023-05-01T14:41:42.270Z,4.10
2023-05-01T14:46:42.300Z,4.90
2023-05-01T14:51:42.207Z,4.60
2023-05-01T14:56:42.102Z,5.20
2023-05-01T15:01:42.129Z,5.10
2023-05-01T15:06:42.098Z,5.90
2023-05-01T15:11:41.955Z,4.90
2023-05-01T15:16:41.860Z,6.20
2023-05-01T15:21:41.791Z,5.00
2023-05-01T15:26:41.705Z,5.60
2023-05-01T15:31:41.681Z,3.80
2023-05-01T15:36:41.644Z,4.30
2023-05-01T15:41:41.524Z,7.70
2023-05-01T15:46:41.575Z,6.50
2023-05-01T15:51:41.422Z,4.80
2023-05-01T15:56:41.358Z,5.30
2023-05-01T16:01:41.384Z,3.20
2023-05-01T16:06:41.575Z,5.00
2023-05-01T16:11:41.094Z,6.90
2023-05-01T16:16:41.074Z,6.90
2023-05-01T16:21:41.035Z,5.40
2023-05-01T16:26:40.919Z,4.50
2023-05-01T16:31:40.919Z,7.60
2023-05-01T16:36:40.763Z,5.40
2023-05-01T16:41:40.705Z,5.10
2023-05-01T16:46:40.698Z,4.80
2023-05-01T16:51:40.570Z,5.60
2023-05-01T16:56:40.531Z,5.70
2023-05-01T17:01:40.800Z,4.70
2023-05-01T17:06:40.802Z,7.40
2023-05-01T17:11:40.316Z,7.80
2023-05-01T17:16:40.309Z,5.60
2023-05-01T17:21:40.121Z,8.20
2023-05-01T17:26:40.067Z,5.20
2023-05-01T17:31:40.264Z,5.90
2023-05-01T17:36:40.115Z,6.20
2023-05-01T17:41:39.853Z,5.90
2023-05-01T17:46:39.791Z,6.60
2023-05-01T17:51:39.727Z,5.20
2023-05-01T17:56:39.647Z,6.40
2023-05-01T18:01:39.681Z,6.50
2023-05-01T18:06:39.601Z,6.90
2023-05-01T18:11:39.446Z,6.40
2023-05-01T18:16:39.426Z,9.40
2023-05-01T18:21:39.342Z,7.80
2023-05-01T18:26:39.249Z,6.90
2023-05-01T18:31:39.191Z,8.40
2023-05-01T18:36:39.152Z,10.00
2023-05-01T18:41:39.045Z,8.10
2023-05-01T18:46:39.025Z,9.90
2023-05-01T18:51:38.956Z,10.20
2023-05-01T18:56:38.848Z,11.80
2023-05-01T19:01:38.860Z,9.70
2023-05-01T19:06:38.737Z,10.50
2023-05-01T19:11:38.643Z,10.30
2023-05-01T19:16:38.684Z,11.10
2023-05-01T19:21:38.499Z,10.50
2023-05-01T19:26:38.459Z,11.10
2023-05-01T19:31:38.469Z,12.00
2023-05-01T19:36:38.317Z,11.80
2023-05-01T19:41:38.239Z,11.10
2023-05-01T19:46:38.172Z,10.40
2023-05-01T19:51:38.100Z,10.40
2023-05-01T19:56:38.040Z,8.30
2023-05-01T20:01:38.062Z,10.20
2023-05-01T20:06:37.919Z,10.60
2023-05-01T20:11:37.840Z,10.80
2023-05-01T20:16:37.810Z,11.90
2023-05-01T20:21:37.707Z,11.10
2023-05-01T20:26:37.641Z,11.00
2023-05-01T20:31:37.663Z,11.80
2023-05-01T20:36:37.503Z,13.20
2023-05-01T20:41:37.440Z,12.30
2023-05-01T20:46:37.415Z,11.60
2023-05-01T20:51:37.306Z,11.50
2023-05-01T20:56:37.220Z,14.20
2023-05-01T21:01:37.258Z,10.80
2023-05-01T21:06:37.161Z,10.60
2023-05-01T21:11:37.032Z,8.80
2023-05-01T21:16:36.993Z,10.40
2023-05-01T21:21:36.916Z,12.90
2023-05-01T21:26:36.816Z,11.30
2023-05-01T21:31:37.000Z,9.00
2023-05-01T21:36:36.696Z,13.90
2023-05-01T21:41:36.629Z,10.80
2023-05-01T21:46:36.636Z,11.90
2023-05-01T21:51:36.484Z,11.00
2023-05-01T21:56:36.418Z,9.60
2023-05-01T22:01:36.458Z,9.70
2023-05-01T22:06:36.305Z,10.00
2023-05-01T22:11:36.211Z,11.40
2023-05-01T22:16:36.192Z,11.60
2023-05-01T22:21:36.078Z,10.70
2023-05-01T22:26:36.025Z,9.70
2023-05-01T22:31:36.054Z,11.50
2023-05-01T22:36:35.887Z,11.20
2023-05-01T22:41:35.830Z,10.70
2023-05-01T22:46:35.764Z,10.80
2023-05-01T22:51:35.693Z,14.20
2023-05-01T22:56:35.654Z,10.00
2023-05-01T23:01:35.669Z,10.30
2023-05-01T23:06:35.564Z,11.50
2023-05-01T23:11:35.439Z,10.70
2023-05-01T23:16:35.412Z,12.20
2023-05-01T23:21:35.333Z,12.80
2023-05-01T23:26:35.229Z,13.30
2023-05-01T23:31:35.281Z,12.60
2023-05-01T23:36:35.109Z,11.50
2023-05-01T23:41:35.041Z,12.70
2023-05-01T23:46:35.026Z,11.90
2023-05-01T23:51:34.912Z,11.70
2023-05-01T23:56:34.823Z,13.20
